Time;durP1;ratioP1;P1;durP2;ratioP2;P2;SDS_P1;SDS_P2;PMS_P1;PMS_P2;Temp;Humidity;BMP_temperature;BMP_pressure;BME280_temperature;BME280_humidity;BME280_pressure;Samples;Min_cycle;Max_cycle;Signal;HPM_P1;HPM_P2
2023/06/27 00:00:48;;;;;;;7.20;5.00;;;;;;;17.76;78.02;98380.52;222104;1299;22546;-74
2023/06/27 00:06:04;;;;;;;7.40;5.20;;;;;;;17.72;78.53;98383.88;222281;1301;22560;-74
2023/06/27 00:11:12;;;;;;;5.60;5.00;;;;;;;17.71;78.63;98381.81;222314;1301;22571;-74
2023/06/27 00:16:17;;;;;;;6.20;5.60;;;;;;;17.69;79.09;98399.79;222246;1299;22592;-74
2023/06/27 00:22:20;;;;;;;5.90;5.20;;;;;;;17.65;79.48;98416.05;222352;1302;22572;-74
2023/06/27 00:27:22;;;;;;;7.70;5.90;;;;;;;17.60;80.03;98429.40;222280;1301;24262;-76
2023/06/27 00:32:25;;;;;;;6.10;5.50;;;;;;;17.58;80.19;98449.55;222104;1302;22567;-75
2023/06/27 00:37:38;;;;;;;9.60;6.50;;;;;;;17.56;80.61;98449.35;222252;1302;25106;-74
2023/06/27 00:42:58;;;;;;;13.70;7.80;;;;;;;17.54;80.94;98463.05;222311;1302;22565;-75
2023/06/27 00:48:04;;;;;;;9.90;7.50;;;;;;;17.48;81.40;98455.91;222209;1302;22569;-75
2023/06/27 00:53:11;;;;;;;7.50;6.80;;;;;;;17.41;81.75;98367.21;222236;1302;22573;-75
2023/06/27 00:58:13;;;;;;;6.80;6.20;;;;;;;17.33;81.91;98352.30;222253;1296;23087;-75
2023/06/27 01:03:21;;;;;;;6.50;5.70;;;;;;;17.28;82.43;98342.91;222242;1300;22639;-76
2023/06/27 01:08:44;;;;;;;6.30;5.60;;;;;;;17.31;83.10;98363.73;222184;1302;23026;-76
2023/06/27 01:14:00;;;;;;;8.50;5.90;;;;;;;17.32;83.38;98352.79;222091;1302;23288;-76
2023/06/27 01:19:21;;;;;;;7.10;6.20;;;;;;;17.30;83.54;98351.96;222025;1302;22639;-76
2023/06/27 01:24:31;;;;;;;6.70;6.00;;;;;;;17.27;83.98;98363.65;222272;1301;22573;-75
2023/06/27 01:29:42;;;;;;;5.60;5.10;;;;;;;17.27;84.24;98373.42;222238;1302;23148;-76
2023/06/27 01:35:25;;;;;;;7.50;6.50;;;;;;;17.25;84.17;98373.30;222246;1299;22566;-75
2023/06/27 01:40:38;;;;;;;6.80;6.10;;;;;;;17.24;84.57;98395.21;222152;1302;22598;-76
2023/06/27 01:45:49;;;;;;;8.00;7.20;;;;;;;17.26;84.76;98394.08;222166;1302;22565;-76
2023/06/27 01:51:05;;;;;;;8.00;7.30;;;;;;;17.30;85.05;98386.02;222100;1302;22546;-75
2023/06/27 01:56:54;;;;;;;8.80;7.90;;;;;;;17.35;85.11;98385.42;221501;1305;22568;-75
2023/06/27 02:02:21;;;;;;;;;;;;;;;;;;;;;
2023/06/27 02:08:09;;;;;;;9.10;8.20;;;;;;;17.38;85.48;98401.02;221442;1305;25391;-75
2023/06/27 02:13:59;;;;;;;11.20;10.10;;;;;;;17.38;85.66;98402.08;221800;1302;22582;-75
2023/06/27 02:19:09;;;;;;;12.70;11.50;;;;;;;17.40;85.84;98411.04;222229;1302;22565;-75
2023/06/27 02:24:33;;;;;;;12.30;11.20;;;;;;;17.40;85.86;98407.99;222010;1302;22561;-75
2023/06/27 02:29:55;;;;;;;10.10;9.10;;;;;;;17.40;86.01;98404.84;222029;1301;22599;-77
2023/06/27 02:35:28;;;;;;;9.10;8.20;;;;;;;17.42;86.04;98403.70;222201;1302;25373;-75
2023/06/27 02:41:10;;;;;;;8.40;7.60;;;;;;;17.42;86.10;98392.80;222249;1302;24288;-76
2023/06/27 02:46:56;;;;;;;9.00;8.10;;;;;;;17.41;86.39;98399.20;222253;1302;22552;-76
2023/06/27 02:52:07;;;;;;;8.80;8.00;;;;;;;17.40;86.32;98401.68;222233;1292;22585;-74
2023/06/27 02:57:36;;;;;;;;;;;;;;;;;;;;;
2023/06/27 03:02:47;;;;;;;10.40;9.40;;;;;;;17.42;86.62;98403.12;222317;1299;22562;-77
2023/06/27 03:07:55;;;;;;;11.30;9.20;;;;;;;17.43;86.55;98403.29;222074;1298;22579;-76
2023/06/27 03:13:13;;;;;;;11.00;10.00;;;;;;;17.44;86.96;98406.20;222223;1302;22562;-76
2023/06/27 03:18:16;;;;;;;9.90;9.10;;;;;;;17.48;86.97;98415.35;221762;1298;22578;-76
2023/06/27 03:23:25;;;;;;;12.50;11.30;;;;;;;17.50;87.07;98415.07;221955;1302;22575;-76
2023/06/27 03:28:30;;;;;;;13.40;12.10;;;;;;;17.51;87.11;98416.05;221918;1302;22574;-76
2023/06/27 03:33:34;;;;;;;17.70;16.00;;;;;;;17.54;87.19;98419.55;222009;1301;22591;-75
2023/06/27 03:38:40;;;;;;;19.50;17.50;;;;;;;17.56;87.37;98418.27;222258;1302;22553;-77
2023/06/27 03:43:49;;;;;;;20.30;18.30;;;;;;;17.60;87.37;98424.64;222191;1302;24215;-76
2023/06/27 03:48:58;;;;;;;22.50;20.20;;;;;;;17.64;87.43;98425.80;222324;1302;22623;-76
2023/06/27 03:54:06;;;;;;;17.80;16.10;;;;;;;17.68;87.41;98425.37;222181;1300;24682;-76
2023/06/27 03:59:09;;;;;;;18.90;16.90;;;;;;;17.71;87.28;98425.59;222260;1302;22581;-76
2023/06/27 04:04:19;;;;;;;14.50;12.80;;;;;;;17.75;87.42;98423.04;222292;1302;22611;-76
2023/06/27 04:09:31;;;;;;;14.90;13.30;;;;;;;17.74;87.29;98431.90;222298;1302;22723;-76
2023/06/27 04:14:34;;;;;;;15.90;14.40;;;;;;;17.73;87.23;98438.62;222213;1298;22585;-76
2023/06/27 04:19:36;;;;;;;12.70;10.40;;;;;;;17.71;87.25;98450.05;222242;1297;22561;-76
2023/06/27 04:24:39;;;;;;;10.20;9.30;;;;;;;17.65;86.87;98456.75;222219;1301;22606;-77
2023/06/27 04:29:42;;;;;;;10.00;8.70;;;;;;;17.58;86.34;98459.91;222281;1298;22582;-76
2023/06/27 04:34:45;;;;;;;9.70;8.80;;;;;;;17.51;86.37;98471.34;222193;1300;22593;-77
2023/06/27 04:39:56;;;;;;;9.20;8.20;;;;;;;17.49;85.81;98475.05;222152;1301;22557;-77
2023/06/27 04:45:03;;;;;;;10.40;7.30;;;;;;;17.51;85.83;98485.39;222371;1301;22572;-77
2023/06/27 04:50:06;;;;;;;9.20;8.00;;;;;;;17.51;85.60;98490.89;222194;1292;22592;-77
2023/06/27 04:55:12;;;;;;;9.20;7.90;;;;;;;17.57;85.28;98486.55;222215;1298;22607;-77
2023/06/27 05:00:17;;;;;;;8.40;7.60;;;;;;;17.69;85.30;98490.55;222348;1295;24480;-77
2023/06/27 05:05:21;;;;;;;9.50;7.20;;;;;;;17.74;84.98;98496.77;222097;1301;22591;-77
2023/06/27 05:10:23;;;;;;;7.90;7.10;;;;;;;17.73;84.69;98497.45;221996;1302;22600;-77
2023/06/27 05:15:32;;;;;;;9.70;7.30;;;;;;;17.75;84.34;98499.84;222246;1300;22503;-77
2023/06/27 05:20:54;;;;;;;11.80;7.80;;;;;;;17.82;84.06;98505.59;222271;1295;24294;-77
2023/06/27 05:25:56;;;;;;;6.90;6.20;;;;;;;17.97;83.59;98509.63;222233;1301;22571;-77
2023/06/27 05:31:03;;;;;;;11.20;6.70;;;;;;;18.12;83.31;98518.70;222203;1298;22903;-77
2023/06/27 05:36:33;;;;;;;8.30;5.80;;;;;;;18.27;82.81;98527.55;222156;1298;22558;-78
2023/06/27 05:41:37;;;;;;;8.50;6.30;;;;;;;18.32;82.41;98527.98;222070;1301;22754;-77
2023/06/27 05:46:48;;;;;;;7.60;6.20;;;;;;;18.30;82.02;98525.89;222255;1301;22603;-78
2023/06/27 05:51:55;;;;;;;6.60;5.70;;;;;;;18.38;82.10;98525.09;222074;1295;22561;-76
2023/06/27 05:56:57;;;;;;;7.70;6.60;;;;;;;18.57;82.08;98526.20;221978;1298;22679;-74
2023/06/27 06:02:07;;;;;;;13.10;6.90;;;;;;;18.60;81.54;98531.91;221846;1295;22572;-74
2023/06/27 06:07:12;;;;;;;10.00;8.10;;;;;;;18.48;81.47;98526.31;222017;1298;22596;-75
2023/06/27 06:12:18;;;;;;;12.20;8.20;;;;;;;18.30;81.37;98526.68;221568;1295;139445;-75
2023/06/27 06:17:38;;;;;;;10.50;8.00;;;;;;;18.16;81.57;98526.98;220996;1298;844007;-77
2023/06/27 06:22:49;;;;;;;12.70;8.10;;;;;;;18.04;81.96;98534.40;221784;1302;22532;-76
2023/06/27 06:28:43;;;;;;;;;;;;;;;;;;;;;
2023/06/27 06:33:55;;;;;;;11.70;9.10;;;;;;;17.77;82.44;98537.79;221855;1283;138764;-75
2023/06/27 06:39:21;;;;;;;10.80;9.30;;;;;;;17.76;82.74;98541.79;221928;1294;138743;-75
2023/06/27 06:44:24;;;;;;;14.40;10.20;;;;;;;17.80;82.88;98549.80;221887;1295;138715;-75
2023/06/27 06:49:27;;;;;;;10.50;8.60;;;;;;;17.86;82.78;98552.09;221793;1295;138911;-76
2023/06/27 06:55:06;;;;;;;;;;;;;;;;;;;;;
2023/06/27 07:00:48;;;;;;;11.00;8.20;;;;;;;17.65;81.83;98557.44;221713;1295;125004;-78
2023/06/27 07:06:16;;;;;;;9.90;8.90;;;;;;;17.50;82.07;98554.45;221765;1295;138781;-77
2023/06/27 07:11:50;;;;;;;;;;;;;;;;;;;;;
2023/06/27 07:17:19;;;;;;;12.70;9.10;;;;;;;17.70;82.14;98579.88;221576;1295;138749;-77
2023/06/27 07:23:07;;;;;;;;;;;;;;;;;;;;;
2023/06/27 07:28:24;;;;;;;9.30;6.80;;;;;;;18.06;80.86;98575.55;222001;1287;22570;-76
2023/06/27 07:33:59;;;;;;;14.10;7.70;;;;;;;18.17;80.53;98576.70;221412;1279;138342;-76
2023/06/27 07:39:25;;;;;;;;;;;;;;;18.45;80.33;98589.41;221446;1292;138597;-75
2023/06/27 07:44:31;;;;;;;10.10;7.20;;;;;;;18.67;79.09;98602.59;221885;1300;125233;-76
2023/06/27 07:49:40;;;;;;;8.90;7.30;;;;;;;18.62;78.85;98605.50;221765;1288;138930;-76
2023/06/27 07:54:42;;;;;;;8.10;7.20;;;;;;;18.53;78.67;98606.56;221685;1297;138590;-77
2023/06/27 07:59:46;;;;;;;10.70;7.10;;;;;;;18.57;78.53;98604.65;221568;1298;138693;-77
2023/06/27 08:04:51;;;;;;;9.80;6.90;;;;;;;18.72;78.34;98602.34;221654;1302;22568;-77
2023/06/27 08:10:11;;;;;;;12.30;7.00;;;;;;;19.04;78.21;98601.18;221896;1301;138398;-77
2023/06/27 08:15:16;;;;;;;7.60;5.50;;;;;;;19.41;77.23;98603.92;221779;1301;139124;-75
2023/06/27 08:20:28;;;;;;;5.60;4.20;;;;;;;19.65;76.38;98607.41;221595;1301;138784;-75
2023/06/27 08:25:51;;;;;;;5.70;4.00;;;;;;;19.91;74.24;98599.21;221830;1279;138793;-76
2023/06/27 08:30:55;;;;;;;4.50;3.70;;;;;;;20.07;72.74;98598.40;221609;1295;138551;-76
2023/06/27 08:36:02;;;;;;;6.60;4.30;;;;;;;20.10;71.54;98593.92;221757;1295;139015;-76
2023/06/27 08:41:05;;;;;;;8.30;3.90;;;;;;;20.20;71.34;98594.73;221383;1301;23177;-75
2023/06/27 08:46:24;;;;;;;6.10;4.00;;;;;;;20.29;71.01;98601.79;221711;1295;138174;-76
2023/06/27 08:51:28;;;;;;;5.40;3.30;;;;;;;20.30;70.05;98612.75;221833;1295;138479;-78
2023/06/27 08:56:41;;;;;;;4.70;3.60;;;;;;;20.27;69.45;98613.04;221761;1301;138469;-77
2023/06/27 09:01:44;;;;;;;5.50;3.30;;;;;;;20.37;69.62;98614.76;221688;1302;138491;-79
2023/06/27 09:07:10;;;;;;;6.30;3.50;;;;;;;20.48;68.91;98620.11;221869;1302;138608;-77
2023/06/27 09:12:16;;;;;;;4.30;3.50;;;;;;;20.52;68.11;98623.58;221682;1295;138515;-77
2023/06/27 09:17:18;;;;;;;3.50;3.20;;;;;;;20.63;68.20;98625.50;221818;1302;138552;-75
2023/06/27 09:22:28;;;;;;;4.50;3.60;;;;;;;20.75;68.10;98623.89;221723;1301;24919;-76
2023/06/27 09:27:58;;;;;;;;;;;;;;;;;;;;;
2023/06/27 09:33:01;;;;;;;3.70;3.10;;;;;;;21.07;67.21;98633.17;221911;1294;138343;-76
2023/06/27 09:38:32;;;;;;;4.70;3.00;;;;;;;21.08;65.66;98633.65;221605;1291;138754;-76
2023/06/27 09:43:54;;;;;;;4.80;2.50;;;;;;;21.24;65.37;98633.45;221440;1298;138579;-76
2023/06/27 09:49:09;;;;;;;3.80;2.20;;;;;;;21.52;63.65;98638.05;221505;1298;138619;-76
2023/06/27 09:54:31;;;;;;;6.80;2.70;;;;;;;21.83;62.57;98639.20;221624;1301;138643;-76
2023/06/27 09:59:34;;;;;;;3.70;2.00;;;;;;;21.96;61.39;98641.81;221662;1301;138403;-78
2023/06/27 10:04:40;;;;;;;4.00;2.30;;;;;;;21.91;60.69;98636.16;221887;1302;22576;-76
2023/06/27 10:09:59;;;;;;;3.40;2.40;;;;;;;21.98;59.88;98642.77;221688;1295;138073;-78
2023/06/27 10:15:08;;;;;;;3.10;2.00;;;;;;;21.95;59.20;98640.74;221308;1301;138037;-78
2023/06/27 10:20:18;;;;;;;3.00;2.40;;;;;;;21.86;59.83;98639.63;221642;1285;137974;-78
2023/06/27 10:25:21;;;;;;;7.70;2.50;;;;;;;21.82;59.66;98637.30;221648;1300;138158;-78
2023/06/27 10:30:28;;;;;;;2.80;2.00;;;;;;;21.87;60.24;98636.73;221582;1282;137916;-78
2023/06/27 10:35:38;;;;;;;7.40;2.40;;;;;;;22.09;59.58;98630.80;221660;1301;138284;-78
2023/06/27 10:41:18;;;;;;;4.80;2.20;;;;;;;22.15;58.69;98630.59;221733;1301;22612;-78
2023/06/27 10:46:27;;;;;;;3.00;2.10;;;;;;;21.98;58.34;98621.13;221981;1296;22569;-78
2023/06/27 10:51:43;;;;;;;5.70;2.50;;;;;;;21.96;58.61;98616.91;221759;1279;138009;-78
2023/06/27 10:56:54;;;;;;;3.20;2.40;;;;;;;21.97;59.14;98608.15;221818;1301;137639;-79
2023/06/27 11:02:06;;;;;;;6.10;2.60;;;;;;;22.13;58.70;98605.55;221692;1301;138304;-79
2023/06/27 11:07:17;;;;;;;4.70;2.40;;;;;;;22.24;58.37;98605.48;221532;1279;138207;-79
2023/06/27 11:12:21;;;;;;;4.10;2.50;;;;;;;22.31;57.88;98598.89;221888;1292;137929;-79
2023/06/27 11:17:28;;;;;;;3.20;2.00;;;;;;;22.43;57.61;98594.38;221786;1292;138455;-78
2023/06/27 11:22:34;;;;;;;3.10;2.20;;;;;;;22.49;56.52;98595.14;221893;1298;22556;-78
2023/06/27 11:27:58;;;;;;;2.40;2.10;;;;;;;22.60;55.86;98585.38;221777;1298;137507;-78
2023/06/27 11:33:02;;;;;;;4.10;2.60;;;;;;;22.94;55.95;98583.36;221919;1299;137771;-78
2023/06/27 11:38:25;;;;;;;3.70;2.90;;;;;;;23.21;54.62;98573.91;221800;1286;137797;-79
2023/06/27 11:43:44;;;;;;;4.00;2.50;;;;;;;23.29;53.94;98569.52;221943;1298;137825;-77
2023/06/27 11:48:57;;;;;;;2.50;2.30;;;;;;;23.29;54.35;98569.66;221815;1282;137959;-78
2023/06/27 11:54:02;;;;;;;3.30;2.40;;;;;;;23.17;54.24;98567.67;221788;1298;138235;-78
2023/06/27 11:59:06;;;;;;;2.20;2.00;;;;;;;23.06;54.04;98564.58;221880;1298;22573;-78
2023/06/27 12:04:37;;;;;;;3.10;2.20;;;;;;;23.02;54.13;98554.95;221939;1295;137505;-77
2023/06/27 12:09:40;;;;;;;3.80;2.30;;;;;;;22.82;54.05;98551.38;221623;1285;137246;-77
2023/06/27 12:14:43;;;;;;;2.10;1.90;;;;;;;22.81;54.39;98553.54;221582;1301;137630;-78
2023/06/27 12:19:52;;;;;;;2.80;1.60;;;;;;;22.74;51.46;98550.10;221795;1282;137924;-76
2023/06/27 12:24:55;;;;;;;2.30;1.70;;;;;;;22.58;50.40;98548.42;221709;1298;137943;-77
2023/06/27 12:30:01;;;;;;;2.00;1.50;;;;;;;22.47;50.02;98544.73;221841;1292;137997;-77
2023/06/27 12:35:04;;;;;;;2.60;1.40;;;;;;;22.31;50.56;98529.49;221713;1302;22572;-78
2023/06/27 12:40:08;;;;;;;3.20;1.80;;;;;;;22.24;50.50;98525.84;221774;1296;137524;-79
2023/06/27 12:45:11;;;;;;;3.60;1.80;;;;;;;22.30;51.51;98525.84;221942;1296;137673;-77
2023/06/27 12:50:16;;;;;;;3.00;1.70;;;;;;;22.31;51.06;98522.50;221857;1301;137853;-79
2023/06/27 12:55:20;;;;;;;5.60;1.30;;;;;;;22.25;50.82;98523.27;221802;1300;137784;-79
2023/06/27 13:00:22;;;;;;;2.40;1.60;;;;;;;22.40;50.93;98523.02;221640;1302;137945;-79
2023/06/27 13:05:26;;;;;;;2.20;1.50;;;;;;;22.51;50.88;98510.10;221518;1301;137864;-79
2023/06/27 13:10:45;;;;;;;2.80;1.90;;;;;;;22.58;50.50;98510.30;221858;1303;22608;-81
2023/06/27 13:15:57;;;;;;;2.90;2.10;;;;;;;22.38;49.78;98510.86;221671;1289;138434;-80
2023/06/27 13:21:19;;;;;;;3.60;2.20;;;;;;;22.34;50.04;98512.92;221694;1301;138564;-80
2023/06/27 13:26:22;;;;;;;2.70;2.10;;;;;;;22.35;50.21;98511.90;221841;1301;137904;-78
2023/06/27 13:31:25;;;;;;;3.40;1.90;;;;;;;22.26;50.42;98505.02;221716;1301;137810;-79
2023/06/27 13:36:31;;;;;;;2.50;2.10;;;;;;;22.36;51.12;98496.93;221828;1298;137852;-80
2023/06/27 13:41:34;;;;;;;2.70;2.30;;;;;;;22.39;50.66;98498.28;221845;1301;137839;-81
2023/06/27 13:46:40;;;;;;;4.30;2.30;;;;;;;22.44;50.50;98496.75;221689;1295;26172;-77
2023/06/27 13:52:06;;;;;;;2.30;1.80;;;;;;;22.57;49.49;98496.79;221837;1280;137586;-80
2023/06/27 13:57:14;;;;;;;2.10;1.90;;;;;;;22.59;48.58;98499.90;221812;1296;137854;-77
2023/06/27 14:02:17;;;;;;;2.60;2.30;;;;;;;22.36;49.28;98504.09;221360;1288;23042;-77
2023/06/27 14:07:38;;;;;;;2.50;1.80;;;;;;;22.28;49.17;98499.84;221535;1299;22615;-77
2023/06/27 14:12:41;;;;;;;3.00;1.70;;;;;;;22.43;49.60;98509.56;221495;1302;25391;-77
2023/06/27 14:17:44;;;;;;;5.30;2.00;;;;;;;22.33;49.15;98507.75;221727;1301;22565;-77
2023/06/27 14:22:50;;;;;;;4.00;1.90;;;;;;;22.28;49.31;98501.55;221888;1301;23482;-77
2023/06/27 14:27:53;;;;;;;3.80;1.80;;;;;;;22.26;50.03;98503.45;222217;1301;23849;-76
2023/06/27 14:32:58;;;;;;;4.50;1.80;;;;;;;22.26;50.22;98496.82;222143;1301;25452;-77
2023/06/27 14:38:00;;;;;;;2.70;2.10;;;;;;;22.24;50.66;98486.88;222041;1301;22503;-77
2023/06/27 14:43:03;;;;;;;3.00;1.90;;;;;;;22.21;50.70;98486.23;222179;1301;22594;-78
2023/06/27 14:48:08;;;;;;;2.70;1.90;;;;;;;22.17;49.51;98488.38;222161;1301;24313;-78
2023/06/27 14:53:13;;;;;;;5.00;2.00;;;;;;;22.06;49.49;98480.85;222088;1302;22582;-76
2023/06/27 14:58:47;;;;;;;4.60;1.90;;;;;;;22.17;50.00;98475.89;222161;1302;22565;-76
2023/06/27 15:03:49;;;;;;;2.00;1.80;;;;;;;22.25;49.50;98479.92;222176;1302;22565;-76
2023/06/27 15:08:56;;;;;;;2.00;1.50;;;;;;;22.27;49.48;98475.28;222023;1302;22573;-76
2023/06/27 15:14:18;;;;;;;2.60;1.80;;;;;;;22.59;49.72;98464.03;222265;1302;22576;-77
2023/06/27 15:19:28;;;;;;;2.10;1.50;;;;;;;22.72;48.54;98466.20;222235;1300;22597;-79
2023/06/27 15:24:30;;;;;;;2.20;1.90;;;;;;;22.61;48.64;98473.98;222335;1302;23024;-77
2023/06/27 15:29:32;;;;;;;4.70;1.50;;;;;;;22.45;48.90;98482.63;222027;1302;22572;-77
2023/06/27 15:34:41;;;;;;;2.30;1.30;;;;;;;22.08;49.33;98481.60;222251;1302;22644;-78
2023/06/27 15:39:43;;;;;;;5.10;1.70;;;;;;;21.82;49.52;98497.21;222078;1302;23029;-78
2023/06/27 15:45:16;;;;;;;4.10;1.60;;;;;;;21.59;50.25;98503.10;222217;1302;22582;-76
2023/06/27 15:50:26;;;;;;;2.50;1.70;;;;;;;21.66;51.28;98504.40;222084;1302;22564;-76
2023/06/27 15:55:31;;;;;;;2.90;1.90;;;;;;;21.68;51.74;98496.98;222235;1301;24389;-77
2023/06/27 16:00:40;;;;;;;3.40;1.80;;;;;;;21.57;52.61;98495.09;222212;1279;25028;-77
2023/06/27 16:05:42;;;;;;;4.30;1.80;;;;;;;21.47;52.75;98496.64;222319;1302;23085;-77
2023/06/27 16:10:45;;;;;;;3.60;1.50;;;;;;;21.37;52.69;98502.14;222012;1302;24388;-77
2023/06/27 16:15:47;;;;;;;4.10;1.60;;;;;;;21.26;52.49;98511.35;222159;1302;25394;-79
2023/06/27 16:20:55;;;;;;;5.30;1.80;;;;;;;21.15;52.57;98514.61;222049;1302;22576;-78
2023/06/27 16:26:11;;;;;;;3.40;1.50;;;;;;;21.18;52.49;98517.34;222178;1303;24500;-80
2023/06/27 16:31:14;;;;;;;2.30;1.30;;;;;;;21.19;51.86;98513.16;222338;1302;22566;-78
2023/06/27 16:36:18;;;;;;;4.20;1.80;;;;;;;21.10;51.67;98515.39;222242;1302;22572;-79
2023/06/27 16:41:23;;;;;;;6.20;2.30;;;;;;;20.97;51.53;98513.77;221936;1302;22598;-79
2023/06/27 16:46:40;;;;;;;3.20;1.20;;;;;;;20.82;51.65;98515.05;222059;1303;24356;-78
2023/06/27 16:51:42;;;;;;;2.60;1.00;;;;;;;20.49;52.24;98518.65;222145;1302;22569;-78
2023/06/27 16:57:05;;;;;;;3.60;1.50;;;;;;;20.13;52.97;98523.02;222134;1301;22557;-79
2023/06/27 17:02:07;;;;;;;2.50;1.10;;;;;;;20.03;53.79;98517.80;222273;1301;22628;-78
2023/06/27 17:07:36;;;;;;;1.30;1.10;;;;;;;20.05;52.98;98517.77;222214;1302;23361;-77
2023/06/27 17:12:42;;;;;;;5.00;1.00;;;;;;;20.34;52.41;98528.30;222160;1303;22562;-78
2023/06/27 17:18:03;;;;;;;2.40;1.00;;;;;;;21.75;52.07;98533.89;221953;1302;22564;-77
2023/06/27 17:23:36;;;;;;;2.00;1.30;;;;;;;23.09;50.53;98539.64;222042;1303;25090;-78
2023/06/27 17:28:38;;;;;;;2.60;1.10;;;;;;;24.05;48.48;98548.66;222194;1303;22577;-78
2023/06/27 17:33:54;;;;;;;1.70;1.10;;;;;;;24.82;47.59;98544.77;222018;1303;22568;-77
2023/06/27 17:39:04;;;;;;;1.20;0.90;;;;;;;25.29;46.12;98547.08;222106;1303;23117;-78
2023/06/27 17:44:09;;;;;;;2.60;1.20;;;;;;;25.50;44.87;98542.70;221934;1303;22606;-77
2023/06/27 17:49:20;;;;;;;1.70;1.00;;;;;;;25.46;44.45;98546.50;222187;1302;25271;-77
2023/06/27 17:54:24;;;;;;;1.40;0.80;;;;;;;25.06;44.21;98551.34;222236;1301;22595;-77
2023/06/27 17:59:27;;;;;;;1.60;0.90;;;;;;;23.73;45.14;98554.40;222147;1301;22582;-78
2023/06/27 18:04:32;;;;;;;2.00;1.00;;;;;;;22.44;46.70;98556.66;222116;1303;22577;-78
2023/06/27 18:09:46;;;;;;;2.70;0.90;;;;;;;21.25;47.86;98558.83;222147;1301;24445;-76
2023/06/27 18:15:12;;;;;;;2.10;0.90;;;;;;;20.32;49.33;98557.48;221953;1302;289172;-77
2023/06/27 18:20:18;;;;;;;1.40;0.80;;;;;;;19.57;50.21;98565.87;222183;1299;25268;-78
2023/06/27 18:25:20;;;;;;;2.40;0.80;;;;;;;19.01;50.82;98570.98;222220;1301;24424;-77
2023/06/27 18:30:26;;;;;;;2.90;1.00;;;;;;;18.56;51.48;98569.47;222304;1296;22572;-78
2023/06/27 18:35:28;;;;;;;2.50;0.80;;;;;;;18.19;52.16;98558.06;222215;1302;22572;-77
2023/06/27 18:40:31;;;;;;;3.00;0.90;;;;;;;17.89;53.03;98565.25;222222;1302;22567;-77
2023/06/27 18:45:33;;;;;;;1.10;0.80;;;;;;;17.60;53.80;98563.38;222296;1302;22569;-77
2023/06/27 18:50:46;;;;;;;1.70;1.00;;;;;;;17.39;54.61;98564.97;222222;1301;22593;-79
2023/06/27 18:55:48;;;;;;;0.90;0.90;;;;;;;17.13;55.78;98568.14;222088;1302;22564;-77
2023/06/27 19:01:32;;;;;;;1.10;0.80;;;;;;;16.86;56.77;98578.08;222333;1302;22590;-78
2023/06/27 19:07:00;;;;;;;1.60;0.90;;;;;;;16.62;57.87;98581.13;222279;1301;22598;-76
2023/06/27 19:12:15;;;;;;;1.70;0.80;;;;;;;16.38;58.53;98583.42;222218;1301;22572;-77
2023/06/27 19:17:28;;;;;;;2.50;1.90;;;;;;;16.16;58.93;98586.30;222211;1302;22565;-78
2023/06/27 19:22:44;;;;;;;3.80;1.00;;;;;;;15.93;59.62;98585.05;222346;1302;22585;-76
2023/06/27 19:27:49;;;;;;;1.40;1.10;;;;;;;15.71;60.04;98592.36;222196;1302;22580;-78
2023/06/27 19:32:51;;;;;;;2.10;1.20;;;;;;;15.52;60.68;98593.73;222232;1296;23014;-77
2023/06/27 19:38:26;;;;;;;2.10;0.90;;;;;;;15.34;61.26;98600.63;222336;1302;22595;-78
2023/06/27 19:44:09;;;;;;;2.00;1.20;;;;;;;15.14;61.74;98608.95;222229;1302;25237;-77
2023/06/27 19:49:38;;;;;;;1.00;0.90;;;;;;;14.96;62.11;98616.02;222337;1302;22570;-78
2023/06/27 19:55:01;;;;;;;1.30;1.20;;;;;;;14.79;62.42;98623.35;222270;1302;22602;-77
2023/06/27 20:00:39;;;;;;;3.20;1.00;;;;;;;14.61;62.95;98620.64;222189;1303;24949;-77
2023/06/27 20:06:29;;;;;;;2.70;1.10;;;;;;;14.48;63.42;98619.08;221867;1301;22556;-77
2023/06/27 20:12:13;;;;;;;2.10;1.10;;;;;;;14.34;63.94;98615.84;221703;1304;22597;-77
2023/06/27 20:17:21;;;;;;;1.40;1.00;;;;;;;14.21;64.22;98618.43;221873;1304;22572;-76
2023/06/27 20:23:09;;;;;;;1.70;1.20;;;;;;;14.10;64.65;98614.09;221867;1304;22576;-78
2023/06/27 20:28:16;;;;;;;3.10;1.50;;;;;;;13.98;65.32;98608.85;221900;1301;22594;-78
2023/06/27 20:33:21;;;;;;;2.90;1.40;;;;;;;13.89;65.94;98616.75;221753;1304;22579;-78
2023/06/27 20:39:16;;;;;;;2.10;1.30;;;;;;;13.79;66.40;98616.73;221922;1304;22576;-77
2023/06/27 20:44:27;;;;;;;1.00;1.00;;;;;;;13.70;66.52;98617.09;221959;1304;22628;-77
2023/06/27 20:49:30;;;;;;;3.50;1.10;;;;;;;13.59;67.11;98612.41;221847;1298;22572;-76
2023/06/27 20:54:42;;;;;;;2.90;1.10;;;;;;;13.47;67.28;98611.56;221793;1301;22513;-77
2023/06/27 21:00:21;;;;;;;1.80;1.00;;;;;;;13.33;67.72;98617.50;221836;1304;22602;-78
2023/06/27 21:05:33;;;;;;;1.40;1.10;;;;;;;13.24;68.23;98613.52;221636;1304;22598;-77
2023/06/27 21:10:38;;;;;;;2.80;1.60;;;;;;;13.15;68.67;98610.92;221734;1304;22572;-77
2023/06/27 21:15:52;;;;;;;1.70;1.20;;;;;;;13.00;68.90;98604.65;221861;1304;26092;-78
2023/06/27 21:21:14;;;;;;;;;;;;;;;;;;;;;
2023/06/27 21:27:04;;;;;;;2.60;1.10;;;;;;;12.79;70.14;98601.73;221868;1304;23313;-76
2023/06/27 21:32:09;;;;;;;2.10;1.30;;;;;;;12.71;70.26;98605.13;221972;1304;22695;-77
2023/06/27 21:37:25;;;;;;;1.60;1.40;;;;;;;12.65;70.65;98603.20;221798;1304;22573;-77
2023/06/27 21:42:37;;;;;;;1.70;1.40;;;;;;;12.58;71.61;98604.72;221825;1301;22583;-78
2023/06/27 21:48:01;;;;;;;2.50;1.40;;;;;;;12.48;71.46;98609.42;221959;1301;24389;-77
2023/06/27 21:53:40;;;;;;;3.50;1.50;;;;;;;12.37;71.89;98601.42;220817;1307;25987;-77
2023/06/27 21:58:54;;;;;;;4.90;1.40;;;;;;;12.28;72.11;98601.35;220775;1308;25383;-76
2023/06/27 22:04:30;;;;;;;2.20;1.30;;;;;;;12.22;72.45;98601.41;220830;1308;22571;-77
2023/06/27 22:09:32;;;;;;;;;;;;;;;12.18;72.53;98598.77;220910;1304;22546;-77
2023/06/27 22:15:11;;;;;;;1.30;1.20;;;;;;;12.15;72.73;98598.20;220982;1304;22579;-77
2023/06/27 22:20:40;;;;;;;2.40;1.70;;;;;;;12.12;73.04;98606.70;221783;1304;22518;-76
2023/06/27 22:26:17;;;;;;;3.30;1.70;;;;;;;12.07;73.44;98604.83;221729;1304;22637;-77
2023/06/27 22:32:04;;;;;;;;;;;;;;;;;;;;;
2023/06/27 22:37:35;;;;;;;2.50;1.30;;;;;;;11.96;73.24;98622.33;221906;1304;22669;-77
2023/06/27 22:43:35;;;;;;;;;;;;;;;;;;;;;
2023/06/27 22:49:58;;;;;;;4.80;1.70;;;;;;;11.85;73.87;98623.65;221678;1304;22572;-77
2023/06/27 22:55:23;;;;;;;1.50;1.40;;;;;;;11.83;74.52;98628.04;221851;1302;22588;-77
2023/06/27 23:00:42;;;;;;;2.40;1.50;;;;;;;11.83;74.47;98622.91;221801;1301;22565;-78
2023/06/27 23:06:10;;;;;;;3.10;1.30;;;;;;;11.84;74.47;98628.00;221837;1304;22615;-77
2023/06/27 23:11:41;;;;;;;2.00;1.60;;;;;;;11.85;74.45;98627.93;221695;1304;22579;-76
2023/06/27 23:16:48;;;;;;;2.40;1.30;;;;;;;11.83;74.54;98623.89;221963;1303;22614;-76
2023/06/27 23:22:54;;;;;;;2.60;1.40;;;;;;;11.81;74.67;98619.73;221906;1304;22564;-77
2023/06/27 23:28:55;;;;;;;1.30;1.20;;;;;;;11.80;74.59;98617.98;221708;1281;22595;-77
2023/06/27 23:40:19;;;;;;;2.10;1.40;;;;;;;11.89;74.64;98621.00;221738;1304;22578;-76
2023/06/27 23:45:48;;;;;;;2.90;1.40;;;;;;;11.98;75.18;98620.83;221788;1304;22585;-71
2023/06/27 23:51:58;;;;;;;2.40;1.20;;;;;;;12.10;74.88;98617.95;221952;1304;22651;-71
2023/06/27 23:57:33;;;;;;;2.50;1.40;;;;;;;12.20;74.84;98614.73;221834;1304;22817;-71
